Time,TemperatureF,DewpointF,PressureIn,WindDirection,WindDirectionDegrees,WindSpeedMPH,WindSpeedGustMPH,Humidity,HourlyPrecipIn,Conditions,Clouds,dailyrainin,SoftwareType,DateUTC
2013-08-04 00:00:00,66.4,65.2,30.00,NNE,30,0.0,1.0,96,0.00,,SKC,0.00,VWS V14.01,2013-08-04 04:00:00,
2013-08-04 00:01:00,66.4,65.2,30.01,NNE,30,0.0,0.0,96,0.00,,SKC,0.00,VWS V14.01,2013-08-04 04:01:00,
2013-08-04 00:02:00,66.4,65.2,30.01,NNE,30,0.0,0.0,96,0.00,,SKC,0.00,VWS V14.01,2013-08-04 04:02:00,
2013-08-04 00:07:00,66.2,65.0,30.01,NNE,30,0.0,1.0,96,0.00,,SKC,0.00,VWS V14.01,2013-08-04 04:07:00,
2013-08-04 00:12:00,66.2,65.3,30.01,NNE,30,0.0,1.0,97,0.00,,SKC,0.00,VWS V14.01,2013-08-04 04:12:00,
2013-08-04 00:17:00,66.1,65.2,30.01,NNE,30,0.0,1.0,97,0.00,,SKC,0.00,VWS V14.01,2013-08-04 04:17:00,
2013-08-04 00:22:00,66.1,65.2,30.01,NNE,30,0.0,1.0,97,0.00,,SKC,0.00,VWS V14.01,2013-08-04 04:22:00,
2013-08-04 00:27:00,66.0,65.1,30.01,NNE,30,2.0,2.0,97,0.00,,SKC,0.00,VWS V14.01,2013-08-04 04:27:00,
2013-08-04 00:30:00,65.8,64.9,30.01,NNE,30,0.0,2.0,97,0.00,,SKC,0.00,VWS V14.01,2013-08-04 04:30:00,
2013-08-04 00:32:00,65.7,64.8,30.01,NNE,30,0.0,1.0,97,0.00,,SKC,0.00,VWS V14.01,2013-08-04 04:32:00,
2013-08-04 00:37:00,65.7,64.8,30.01,NNE,30,0.0,1.0,97,0.00,,SKC,0.00,VWS V14.01,2013-08-04 04:37:00,
2013-08-04 00:42:00,65.8,65.2,30.01,NNE,30,0.0,1.0,98,0.00,,SKC,0.00,VWS V14.01,2013-08-04 04:42:00,
2013-08-04 00:47:00,65.7,65.1,30.01,NNE,30,0.0,1.0,98,0.00,,SKC,0.00,VWS V14.01,2013-08-04 04:47:00,
2013-08-04 00:52:00,65.7,65.1,30.01,NNE,30,0.0,1.0,98,0.00,,SKC,0.00,VWS V14.01,2013-08-04 04:52:00,
2013-08-04 00:57:00,65.6,64.7,30.01,NNE,30,0.0,1.0,97,0.00,,SKC,0.00,VWS V14.01,2013-08-04 04:57:00,
2013-08-04 01:00:00,65.5,64.6,30.01,NNE,30,0.0,1.0,97,0.00,,SKC,0.00,VWS V14.01,2013-08-04 05:00:00,
2013-08-04 01:02:00,65.4,64.5,30.01,NNE,30,0.0,0.0,97,0.00,,SKC,0.00,VWS V14.01,2013-08-04 05:02:00,
2013-08-04 01:07:00,65.3,64.7,30.01,NNE,30,0.0,0.0,98,0.00,,SKC,0.00,VWS V14.01,2013-08-04 05:07:00,
2013-08-04 01:12:00,65.2,64.6,30.01,NNE,30,0.0,0.0,98,0.00,,SKC,0.00,VWS V14.01,2013-08-04 05:12:00,
2013-08-04 01:17:00,65.2,64.6,30.01,NNE,30,0.0,1.0,98,0.00,,SKC,0.00,VWS V14.01,2013-08-04 05:17:00,
2013-08-04 01:22:00,65.3,64.7,30.01,NNE,30,0.0,1.0,98,0.00,,SKC,0.00,VWS V14.01,2013-08-04 05:22:00,
2013-08-04 01:27:00,65.2,64.6,30.01,NNE,30,0.0,1.0,98,0.00,,SKC,0.00,VWS V14.01,2013-08-04 05:27:00,
2013-08-04 01:30:00,65.2,64.6,30.01,NNE,30,0.0,1.0,98,0.00,,SKC,0.00,VWS V14.01,2013-08-04 05:30:00,
2013-08-04 01:32:00,65.2,64.6,30.01,NNE,30,0.0,0.0,98,0.00,,SKC,0.00,VWS V14.01,2013-08-04 05:32:00,
2013-08-04 01:37:00,65.0,64.4,30.01,NNE,30,0.0,0.0,98,0.00,,SKC,0.00,VWS V14.01,2013-08-04 05:37:00,
2013-08-04 01:42:00,65.0,64.4,30.01,NNE,30,0.0,1.0,98,0.00,,SKC,0.00,VWS V14.01,2013-08-04 05:42:00,
2013-08-04 01:47:00,64.9,64.3,30.01,NNE,30,0.0,1.0,98,0.00,,SKC,0.00,VWS V14.01,2013-08-04 05:47:00,
2013-08-04 01:52:00,64.9,64.3,30.01,NNE,30,0.0,1.0,98,0.00,,SKC,0.00,VWS V14.01,2013-08-04 05:52:00,
2013-08-04 01:57:00,64.9,64.3,30.00,NNE,30,0.0,1.0,98,0.00,,SKC,0.00,VWS V14.01,2013-08-04 05:57:00,
2013-08-04 02:00:00,64.9,64.3,30.00,NNE,30,0.0,1.0,98,0.00,,SKC,0.00,VWS V14.01,2013-08-04 06:00:00,
2013-08-04 02:02:00,64.9,64.3,30.00,NNE,30,0.0,0.0,98,0.00,,SKC,0.00,VWS V14.01,2013-08-04 06:02:00,
2013-08-04 02:07:00,64.8,64.2,30.00,NNE,30,0.0,0.0,98,0.00,,SKC,0.00,VWS V14.01,2013-08-04 06:07:00,
2013-08-04 02:12:00,64.8,64.2,30.00,NNE,30,0.0,0.0,98,0.00,,SKC,0.00,VWS V14.01,2013-08-04 06:12:00,
2013-08-04 02:16:00,64.7,64.1,30.00,NNE,30,0.0,0.0,98,0.00,,SKC,0.00,VWS V14.01,2013-08-04 06:16:00,
2013-08-04 02:22:00,64.6,64.0,30.00,NNE,16,0.0,2.0,98,0.00,,SKC,0.00,VWS V14.01,2013-08-04 06:22:00,
2013-08-04 02:27:00,64.5,63.9,30.00,NNE,15,0.0,2.0,98,0.00,,SKC,0.00,VWS V14.01,2013-08-04 06:27:00,
2013-08-04 02:30:00,64.5,63.9,30.00,NNE,15,0.0,2.0,98,0.00,,SKC,0.00,VWS V14.01,2013-08-04 06:30:00,
2013-08-04 02:32:00,64.4,63.8,30.00,NNE,15,0.0,0.0,98,0.00,,SKC,0.00,VWS V14.01,2013-08-04 06:32:00,
2013-08-04 02:37:00,64.4,63.8,30.00,NNE,15,0.0,0.0,98,0.00,,SKC,0.00,VWS V14.01,2013-08-04 06:37:00,
2013-08-04 02:42:00,64.4,63.8,30.00,NNE,15,0.0,1.0,98,0.00,,SKC,0.00,VWS V14.01,2013-08-04 06:42:00,
2013-08-04 02:47:00,64.3,63.7,30.00,NNE,15,0.0,1.0,98,0.00,,SKC,0.00,VWS V14.01,2013-08-04 06:47:00,
2013-08-04 02:52:00,64.2,63.6,30.00,NNE,16,0.0,1.0,98,0.00,,SKC,0.00,VWS V14.01,2013-08-04 06:52:00,
2013-08-04 02:57:00,64.2,63.6,30.00,NNE,16,0.0,1.0,98,0.00,,SKC,0.00,VWS V14.01,2013-08-04 06:57:00,
2013-08-04 03:00:00,64.1,63.5,30.00,NNE,15,0.0,1.0,98,0.00,,SKC,0.00,VWS V14.01,2013-08-04 07:00:00,
2013-08-04 03:02:00,64.1,63.5,30.00,NNE,15,0.0,0.0,98,0.00,,SKC,0.00,VWS V14.01,2013-08-04 07:02:00,
2013-08-04 03:07:00,64.1,63.5,29.99,NNE,15,0.0,0.0,98,0.00,,SKC,0.00,VWS V14.01,2013-08-04 07:07:00,
2013-08-04 03:12:00,64.2,63.9,29.99,NNE,16,0.0,0.0,99,0.00,,SKC,0.00,VWS V14.01,2013-08-04 07:12:00,
2013-08-04 03:17:00,64.1,63.8,29.99,NNE,15,0.0,0.0,99,0.00,,SKC,0.00,VWS V14.01,2013-08-04 07:17:00,
2013-08-04 03:22:00,64.0,63.4,29.99,NNE,16,0.0,0.0,98,0.00,,SKC,0.00,VWS V14.01,2013-08-04 07:22:00,
2013-08-04 03:27:00,63.9,63.6,29.99,NNE,15,0.0,0.0,99,0.00,,SKC,0.00,VWS V14.01,2013-08-04 07:27:00,
2013-08-04 03:30:00,63.9,63.6,29.99,NNE,16,0.0,0.0,99,0.00,,SKC,0.00,VWS V14.01,2013-08-04 07:30:00,
2013-08-04 03:32:00,63.9,63.6,29.99,NNE,15,0.0,0.0,99,0.00,,SKC,0.00,VWS V14.01,2013-08-04 07:32:00,
2013-08-04 03:37:00,63.9,63.6,29.99,NNE,16,0.0,0.0,99,0.00,,SKC,0.00,VWS V14.01,2013-08-04 07:37:00,
2013-08-04 03:42:00,63.9,63.6,29.99,NNE,15,0.0,0.0,99,0.00,,SKC,0.00,VWS V14.01,2013-08-04 07:42:00,
2013-08-04 03:47:00,64.0,63.7,29.99,NNE,16,0.0,1.0,99,0.00,,SKC,0.00,VWS V14.01,2013-08-04 07:47:00,
2013-08-04 03:52:00,63.9,63.6,29.99,NNE,15,0.0,1.0,99,0.00,,SKC,0.00,VWS V14.01,2013-08-04 07:52:00,
2013-08-04 03:57:00,63.9,63.6,29.99,NNE,15,0.0,1.0,99,0.00,,SKC,0.00,VWS V14.01,2013-08-04 07:57:00,
2013-08-04 04:00:00,64.0,63.7,29.99,NNE,16,0.0,1.0,99,0.00,,SKC,0.00,VWS V14.01,2013-08-04 08:00:00,
2013-08-04 04:02:00,64.0,63.7,29.99,NNE,16,0.0,0.0,99,0.00,,SKC,0.00,VWS V14.01,2013-08-04 08:02:00,
2013-08-04 04:07:00,64.0,63.7,29.99,NNE,16,0.0,0.0,99,0.00,,SKC,0.00,VWS V14.01,2013-08-04 08:07:00,
2013-08-04 04:12:00,64.1,63.8,29.99,NNE,15,0.0,0.0,99,0.00,,SKC,0.00,VWS V14.01,2013-08-04 08:12:00,
2013-08-04 04:17:00,64.0,63.7,29.99,NNE,16,0.0,0.0,99,0.00,,SKC,0.00,VWS V14.01,2013-08-04 08:17:00,
2013-08-04 04:22:00,64.0,63.7,29.99,NNE,15,0.0,0.0,99,0.00,,SKC,0.00,VWS V14.01,2013-08-04 08:22:00,
2013-08-04 04:27:00,64.0,63.7,29.99,NNE,15,0.0,0.0,99,0.00,,SKC,0.00,VWS V14.01,2013-08-04 08:27:00,
2013-08-04 04:30:00,64.1,63.8,29.98,NNE,16,0.0,0.0,99,0.00,,SKC,0.00,VWS V14.01,2013-08-04 08:30:00,
2013-08-04 04:32:00,64.1,63.8,29.99,NNE,15,0.0,0.0,99,0.00,,SKC,0.00,VWS V14.01,2013-08-04 08:32:00,
2013-08-04 04:37:00,64.1,63.8,29.99,NNE,15,1.0,1.0,99,0.00,,SKC,0.00,VWS V14.01,2013-08-04 08:37:00,
2013-08-04 04:42:00,64.1,63.8,29.99,NNE,15,0.0,2.0,99,0.00,,SKC,0.00,VWS V14.01,2013-08-04 08:42:00,
2013-08-04 04:47:00,64.2,63.9,29.99,NNE,16,0.0,2.0,99,0.00,,SKC,0.00,VWS V14.01,2013-08-04 08:47:00,
2013-08-04 04:52:00,64.3,64.0,30.00,NNE,15,0.0,2.0,99,0.00,,SKC,0.00,VWS V14.01,2013-08-04 08:52:00,
2013-08-04 04:57:00,64.4,64.1,30.00,NNE,16,0.0,2.0,99,0.00,,SKC,0.00,VWS V14.01,2013-08-04 08:57:00,
2013-08-04 05:00:00,64.5,64.2,30.00,NNE,16,1.0,2.0,99,0.01,,SKC,0.01,VWS V14.01,2013-08-04 09:00:00,
2013-08-04 05:02:00,64.6,64.3,29.99,NNE,16,0.0,2.0,99,0.01,,SKC,0.01,VWS V14.01,2013-08-04 09:02:00,
2013-08-04 05:07:00,64.7,64.4,29.99,NNE,15,0.0,2.0,99,0.02,,SKC,0.02,VWS V14.01,2013-08-04 09:07:00,
2013-08-04 05:12:00,64.7,64.4,30.00,NNE,15,0.0,2.0,99,0.02,,SKC,0.02,VWS V14.01,2013-08-04 09:12:00,
2013-08-04 05:17:00,64.7,64.4,30.00,NNE,15,0.0,2.0,99,0.02,,SKC,0.02,VWS V14.01,2013-08-04 09:17:00,
2013-08-04 05:22:00,64.7,64.4,29.99,SE,134,1.0,2.0,99,0.02,,SKC,0.02,VWS V14.01,2013-08-04 09:22:00,
2013-08-04 05:27:00,64.7,64.4,30.00,NW,307,0.0,4.0,99,0.02,,SKC,0.02,VWS V14.01,2013-08-04 09:27:00,
2013-08-04 05:30:00,64.7,64.4,30.00,NW,307,0.0,4.0,99,0.02,,SKC,0.02,VWS V14.01,2013-08-04 09:30:00,
2013-08-04 05:32:00,64.7,64.4,30.00,NW,307,0.0,0.0,99,0.02,,SKC,0.02,VWS V14.01,2013-08-04 09:32:00,
2013-08-04 05:37:00,64.7,64.4,30.00,NW,307,0.0,0.0,99,0.02,,SKC,0.02,VWS V14.01,2013-08-04 09:37:00,
2013-08-04 05:42:00,64.7,64.4,30.00,NW,307,0.0,0.0,99,0.02,,SKC,0.02,VWS V14.01,2013-08-04 09:42:00,
2013-08-04 05:47:00,64.7,64.4,30.00,NW,307,0.0,0.0,99,0.03,,SKC,0.03,VWS V14.01,2013-08-04 09:47:00,
2013-08-04 05:52:00,64.8,64.5,30.00,NW,307,0.0,0.0,99,0.05,,SKC,0.05,VWS V14.01,2013-08-04 09:52:00,
2013-08-04 05:57:00,64.9,64.6,30.00,NW,307,0.0,0.0,99,0.06,,SKC,0.06,VWS V14.01,2013-08-04 09:57:00,
2013-08-04 06:00:00,64.9,64.6,30.00,NW,307,0.0,0.0,99,0.06,,SKC,0.06,VWS V14.01,2013-08-04 10:00:00,
2013-08-04 06:02:00,64.9,64.6,30.00,NW,306,0.0,0.0,99,0.05,,SKC,0.06,VWS V14.01,2013-08-04 10:02:00,
2013-08-04 06:07:00,64.9,64.6,30.00,NW,307,0.0,1.0,99,0.05,,SKC,0.06,VWS V14.01,2013-08-04 10:07:00,
2013-08-04 06:12:00,65.0,64.7,30.00,NW,307,0.0,1.0,99,0.05,,SKC,0.06,VWS V14.01,2013-08-04 10:12:00,
2013-08-04 06:17:00,65.0,64.7,30.00,NW,307,0.0,1.0,99,0.05,,SKC,0.06,VWS V14.01,2013-08-04 10:17:00,
2013-08-04 06:22:00,65.0,64.7,30.00,NW,307,0.0,1.0,99,0.05,,SKC,0.06,VWS V14.01,2013-08-04 10:22:00,
2013-08-04 06:27:00,65.0,64.7,30.00,NW,307,0.0,1.0,99,0.05,,SKC,0.06,VWS V14.01,2013-08-04 10:27:00,
2013-08-04 06:30:00,65.0,64.7,30.01,NW,311,1.0,1.0,99,0.05,,SKC,0.06,VWS V14.01,2013-08-04 10:30:00,
2013-08-04 06:32:00,65.0,64.7,30.01,NNE,22,0.0,2.0,99,0.04,,SKC,0.06,VWS V14.01,2013-08-04 10:32:00,
2013-08-04 06:37:00,65.0,64.7,30.00,NNE,23,0.0,2.0,99,0.04,,SKC,0.06,VWS V14.01,2013-08-04 10:37:00,
2013-08-04 06:42:00,64.9,64.6,30.00,NNE,23,0.0,2.0,99,0.04,,SKC,0.06,VWS V14.01,2013-08-04 10:42:00,
2013-08-04 06:47:00,64.9,64.6,30.01,NNE,23,1.0,2.0,99,0.04,,SKC,0.06,VWS V14.01,2013-08-04 10:47:00,
2013-08-04 06:52:00,65.1,64.8,30.00,ESE,119,0.0,3.0,99,0.04,,SKC,0.06,VWS V14.01,2013-08-04 10:52:00,
2013-08-04 06:57:00,65.2,65.2,30.00,ESE,108,0.0,3.0,100,0.04,,SKC,0.06,VWS V14.01,2013-08-04 10:57:00,
2013-08-04 07:00:00,65.2,65.2,30.00,ESE,109,0.0,3.0,100,0.04,,SKC,0.06,VWS V14.01,2013-08-04 11:00:00,
2013-08-04 07:02:00,65.2,65.2,30.00,ESE,110,0.0,0.0,100,0.00,,SKC,0.06,VWS V14.01,2013-08-04 11:02:00,
2013-08-04 07:07:00,65.4,65.4,30.00,ESE,109,0.0,2.0,100,0.00,,SKC,0.06,VWS V14.01,2013-08-04 11:07:00,
2013-08-04 07:12:00,65.4,65.4,30.00,ESE,108,0.0,2.0,100,0.00,,SKC,0.06,VWS V14.01,2013-08-04 11:12:00,
2013-08-04 07:17:00,65.4,65.4,29.99,ESE,109,0.0,2.0,100,0.00,,SKC,0.06,VWS V14.01,2013-08-04 11:17:00,
2013-08-04 07:22:00,65.5,65.5,30.00,ESE,108,0.0,2.0,100,0.00,,SKC,0.06,VWS V14.01,2013-08-04 11:22:00,
2013-08-04 07:27:00,65.6,65.6,30.00,ESE,109,0.0,2.0,100,0.00,,SKC,0.06,VWS V14.01,2013-08-04 11:27:00,
2013-08-04 07:30:00,65.8,65.8,30.00,ESE,108,0.0,2.0,100,0.00,,SKC,0.06,VWS V14.01,2013-08-04 11:30:00,
2013-08-04 07:32:00,65.9,65.9,30.00,ESE,108,0.0,0.0,100,0.00,,SKC,0.06,VWS V14.01,2013-08-04 11:32:00,
2013-08-04 07:37:00,66.3,66.3,30.01,ESE,108,0.0,1.0,100,0.00,,SKC,0.06,VWS V14.01,2013-08-04 11:37:00,
2013-08-04 07:42:00,66.4,66.4,30.01,ESE,108,1.0,1.0,100,0.00,,SKC,0.06,VWS V14.01,2013-08-04 11:42:00,
2013-08-04 07:47:00,66.5,66.5,30.01,North,4,0.0,2.0,100,0.00,,SKC,0.06,VWS V14.01,2013-08-04 11:47:00,
2013-08-04 07:52:00,66.6,66.6,30.01,North,355,0.0,2.0,100,0.00,,SKC,0.06,VWS V14.01,2013-08-04 11:52:00,
2013-08-04 07:57:00,66.9,66.9,30.02,NE,49,2.0,2.0,100,0.00,,SKC,0.06,VWS V14.01,2013-08-04 11:57:00,
2013-08-04 08:00:00,67.0,67.0,30.02,ENE,60,3.0,5.0,100,0.00,,SKC,0.06,VWS V14.01,2013-08-04 12:00:00,
2013-08-04 08:02:00,67.3,67.3,30.01,NNE,33,2.0,4.0,100,0.00,,SKC,0.06,VWS V14.01,2013-08-04 12:02:00,
2013-08-04 08:07:00,67.7,67.7,30.02,ENE,67,1.0,6.0,100,0.00,,SKC,0.06,VWS V14.01,2013-08-04 12:07:00,
2013-08-04 08:12:00,68.2,68.2,30.02,NNW,346,2.0,8.0,100,0.00,,SKC,0.06,VWS V14.01,2013-08-04 12:12:00,
2013-08-04 08:17:00,68.7,68.7,30.02,NNW,338,1.0,9.0,100,0.00,,SKC,0.06,VWS V14.01,2013-08-04 12:17:00,
2013-08-04 08:22:00,69.1,68.8,30.02,NNW,329,5.0,10.0,99,0.00,,SKC,0.06,VWS V14.01,2013-08-04 12:22:00,
2013-08-04 08:27:00,69.6,69.0,30.02,NNW,340,9.0,10.0,98,0.00,,SKC,0.06,VWS V14.01,2013-08-04 12:27:00,
2013-08-04 08:30:00,69.8,68.9,30.02,NNW,341,4.0,10.0,97,0.00,,SKC,0.06,VWS V14.01,2013-08-04 12:30:00,
2013-08-04 08:32:00,70.0,69.1,30.02,ENE,76,2.0,8.0,97,0.00,,SKC,0.06,VWS V14.01,2013-08-04 12:32:00,
2013-08-04 08:37:00,70.3,68.8,30.02,NNW,340,3.0,8.0,95,0.00,,SKC,0.06,VWS V14.01,2013-08-04 12:37:00,
2013-08-04 08:42:00,70.6,69.1,30.02,NNW,329,2.0,8.0,95,0.00,,SKC,0.06,VWS V14.01,2013-08-04 12:42:00,
2013-08-04 08:47:00,70.7,68.9,30.02,NNW,346,3.0,8.0,94,0.00,,SKC,0.06,VWS V14.01,2013-08-04 12:47:00,
2013-08-04 08:52:00,70.9,68.8,30.02,NNW,334,4.0,15.0,93,0.00,,SKC,0.06,VWS V14.01,2013-08-04 12:52:00,
2013-08-04 08:57:00,71.1,69.0,30.02,NNW,334,5.0,15.0,93,0.00,,SKC,0.06,VWS V14.01,2013-08-04 12:57:00,
2013-08-04 09:00:00,71.2,69.1,30.02,NNE,13,4.0,15.0,93,0.00,,SKC,0.06,VWS V14.01,2013-08-04 13:00:00,
2013-08-04 09:02:00,71.3,69.2,30.02,NE,39,5.0,6.0,93,0.00,,SKC,0.06,VWS V14.01,2013-08-04 13:02:00,
2013-08-04 09:07:00,71.6,69.2,30.02,NNE,20,4.0,6.0,92,0.00,,SKC,0.06,VWS V14.01,2013-08-04 13:07:00,
2013-08-04 09:12:00,71.8,69.0,30.02,North,8,6.0,9.0,91,0.00,,SKC,0.06,VWS V14.01,2013-08-04 13:12:00,
2013-08-04 09:17:00,72.0,68.9,30.02,NNE,24,10.0,10.0,90,0.00,,SKC,0.06,VWS V14.01,2013-08-04 13:17:00,
2013-08-04 09:22:00,72.1,69.0,30.02,NNE,12,6.0,10.0,90,0.00,,SKC,0.06,VWS V14.01,2013-08-04 13:22:00,
2013-08-04 09:27:00,72.4,69.3,30.02,ENE,64,1.0,10.0,90,0.00,,SKC,0.06,VWS V14.01,2013-08-04 13:27:00,
2013-08-04 09:30:00,72.5,68.8,30.02,NNW,342,11.0,14.0,88,0.00,,SKC,0.06,VWS V14.01,2013-08-04 13:30:00,
2013-08-04 09:32:00,72.5,68.8,30.02,North,352,5.0,13.0,88,0.00,,SKC,0.06,VWS V14.01,2013-08-04 13:32:00,
2013-08-04 09:37:00,72.7,69.3,30.02,NW,316,0.0,13.0,89,0.00,,SKC,0.06,VWS V14.01,2013-08-04 13:37:00,
2013-08-04 09:42:00,73.1,69.0,30.02,NNE,23,8.0,13.0,87,0.00,,SKC,0.06,VWS V14.01,2013-08-04 13:42:00,
2013-08-04 09:47:00,73.1,69.0,30.02,NNW,339,3.0,13.0,87,0.00,,SKC,0.06,VWS V14.01,2013-08-04 13:47:00,
2013-08-04 09:52:00,73.3,68.9,30.02,NNW,328,7.0,13.0,86,0.00,,SKC,0.06,VWS V14.01,2013-08-04 13:52:00,
2013-08-04 09:57:00,73.2,68.8,30.02,NNE,33,5.0,13.0,86,0.00,,SKC,0.06,VWS V14.01,2013-08-04 13:57:00,
2013-08-04 10:00:00,73.3,68.5,30.02,NNW,347,5.0,13.0,85,0.00,,SKC,0.06,VWS V14.01,2013-08-04 14:00:00,
2013-08-04 10:02:00,73.4,69.0,30.02,NNW,336,9.0,9.0,86,0.00,,SKC,0.06,VWS V14.01,2013-08-04 14:02:00,
2013-08-04 10:06:00,73.6,69.2,30.02,NNW,335,6.0,11.0,86,0.00,,SKC,0.06,VWS V14.01,2013-08-04 14:06:00,
2013-08-04 10:12:00,74.0,69.2,30.01,North,350,6.0,11.0,85,0.00,,SKC,0.06,VWS V14.01,2013-08-04 14:12:00,
2013-08-04 10:17:00,74.2,68.7,30.01,NNW,342,5.0,11.0,83,0.00,,SKC,0.06,VWS V14.01,2013-08-04 14:17:00,
2013-08-04 10:22:00,74.3,68.4,30.01,WSW,257,4.0,11.0,82,0.00,,SKC,0.06,VWS V14.01,2013-08-04 14:22:00,
2013-08-04 10:27:00,74.6,68.8,30.02,North,356,5.0,15.0,82,0.00,,SKC,0.06,VWS V14.01,2013-08-04 14:27:00,
2013-08-04 10:30:00,74.8,68.2,30.02,North,6,6.0,15.0,80,0.00,,SKC,0.06,VWS V14.01,2013-08-04 14:30:00,
2013-08-04 10:31:00,74.8,68.6,30.02,NNW,330,10.0,12.0,81,0.00,,SKC,0.06,VWS V14.01,2013-08-04 14:31:00,
2013-08-04 10:36:00,74.8,68.9,30.02,North,350,3.0,12.0,82,0.00,,SKC,0.06,VWS V14.01,2013-08-04 14:36:00,
2013-08-04 10:42:00,75.0,68.4,30.02,NNW,333,5.0,12.0,80,0.00,,SKC,0.06,VWS V14.01,2013-08-04 14:42:00,
2013-08-04 10:47:00,75.3,68.7,30.02,SE,131,1.0,12.0,80,0.00,,SKC,0.06,VWS V14.01,2013-08-04 14:47:00,
2013-08-04 10:52:00,75.1,68.2,30.02,NNE,25,6.0,12.0,79,0.00,,SKC,0.06,VWS V14.01,2013-08-04 14:52:00,
2013-08-04 10:57:00,74.4,67.8,30.02,North,9,8.0,12.0,80,0.00,,SKC,0.06,VWS V14.01,2013-08-04 14:57:00,
2013-08-04 11:00:00,74.4,68.2,30.02,NW,320,5.0,12.0,81,0.00,,SKC,0.06,VWS V14.01,2013-08-04 15:00:00,
2013-08-04 11:02:00,74.4,67.8,30.02,North,8,6.0,10.0,80,0.00,,SKC,0.06,VWS V14.01,2013-08-04 15:02:00,
2013-08-04 11:07:00,74.9,67.6,30.02,North,357,7.0,10.0,78,0.00,,SKC,0.06,VWS V14.01,2013-08-04 15:07:00,
2013-08-04 11:12:00,74.9,67.6,30.02,NW,314,3.0,10.0,78,0.00,,SKC,0.06,VWS V14.01,2013-08-04 15:12:00,
2013-08-04 11:17:00,75.0,67.7,30.02,NNE,23,3.0,10.0,78,0.00,,SKC,0.06,VWS V14.01,2013-08-04 15:17:00,
2013-08-04 11:22:00,74.9,67.9,30.02,NNW,341,5.0,10.0,79,0.00,,SKC,0.06,VWS V14.01,2013-08-04 15:22:00,
2013-08-04 11:27:00,75.1,67.0,30.02,NNE,31,8.0,10.0,76,0.00,,SKC,0.06,VWS V14.01,2013-08-04 15:27:00,
2013-08-04 11:30:00,75.1,66.6,30.02,NNW,334,1.0,12.0,75,0.00,,SKC,0.06,VWS V14.01,2013-08-04 15:30:00,
2013-08-04 11:32:00,75.0,66.9,30.02,NNW,342,6.0,6.0,76,0.00,,SKC,0.06,VWS V14.01,2013-08-04 15:32:00,
2013-08-04 11:37:00,74.8,66.7,30.02,North,359,6.0,10.0,76,0.00,,SKC,0.06,VWS V14.01,2013-08-04 15:37:00,
2013-08-04 11:41:00,75.0,67.3,30.02,NE,49,9.0,10.0,77,0.00,,SKC,0.06,VWS V14.01,2013-08-04 15:41:00,
2013-08-04 11:47:00,75.4,66.9,30.02,NNE,30,2.0,11.0,75,0.00,,SKC,0.06,VWS V14.01,2013-08-04 15:47:00,
2013-08-04 11:52:00,75.4,66.9,30.03,NE,53,4.0,11.0,75,0.00,,SKC,0.06,VWS V14.01,2013-08-04 15:52:00,
2013-08-04 11:57:00,75.6,66.7,30.03,NNE,20,5.0,11.0,74,0.00,,SKC,0.06,VWS V14.01,2013-08-04 15:57:00,
2013-08-04 12:00:00,75.8,66.5,30.03,NNE,18,5.0,12.0,73,0.00,,SKC,0.06,VWS V14.01,2013-08-04 16:00:00,
2013-08-04 12:02:00,76.0,67.1,30.03,North,353,8.0,8.0,74,0.00,,SKC,0.06,VWS V14.01,2013-08-04 16:02:00,
2013-08-04 12:06:00,76.0,66.3,30.03,NNW,346,10.0,16.0,72,0.00,,SKC,0.06,VWS V14.01,2013-08-04 16:06:00,
2013-08-04 12:12:00,75.7,65.6,30.03,NNE,12,3.0,16.0,71,0.00,,SKC,0.06,VWS V14.01,2013-08-04 16:12:00,
2013-08-04 12:17:00,75.7,66.0,30.03,SW,231,2.0,16.0,72,0.00,,SKC,0.06,VWS V14.01,2013-08-04 16:17:00,
2013-08-04 12:22:00,75.8,65.7,30.03,NNE,18,3.0,16.0,71,0.00,,SKC,0.06,VWS V14.01,2013-08-04 16:22:00,
2013-08-04 12:27:00,75.7,65.2,30.03,North,360,5.0,16.0,70,0.00,,SKC,0.06,VWS V14.01,2013-08-04 16:27:00,
2013-08-04 12:30:00,75.8,64.9,30.02,NNE,33,3.0,16.0,69,0.00,,SKC,0.06,VWS V14.01,2013-08-04 16:30:00,
2013-08-04 12:31:00,76.0,65.9,30.02,NW,308,4.0,8.0,71,0.00,,SKC,0.06,VWS V14.01,2013-08-04 16:31:00,
2013-08-04 12:36:00,76.5,66.0,30.02,NW,324,2.0,8.0,70,0.00,,SKC,0.06,VWS V14.01,2013-08-04 16:36:00,
2013-08-04 12:42:00,77.0,66.5,30.02,NNW,348,10.0,10.0,70,0.00,,SKC,0.06,VWS V14.01,2013-08-04 16:42:00,
2013-08-04 12:47:00,77.2,66.2,30.02,NW,322,4.0,13.0,69,0.00,,SKC,0.06,VWS V14.01,2013-08-04 16:47:00,
2013-08-04 12:52:00,77.0,65.2,30.02,NE,44,6.0,13.0,67,0.00,,SKC,0.06,VWS V14.01,2013-08-04 16:52:00,
2013-08-04 12:56:00,77.2,65.4,30.02,NW,318,9.0,13.0,67,0.00,,SKC,0.06,VWS V14.01,2013-08-04 16:56:00,
2013-08-04 13:00:00,77.2,65.4,30.02,NNW,338,7.0,13.0,67,0.00,,SKC,0.06,VWS V14.01,2013-08-04 17:00:00,
2013-08-04 13:01:00,77.1,65.3,30.02,NW,308,6.0,12.0,67,0.00,,SKC,0.06,VWS V14.01,2013-08-04 17:01:00,
2013-08-04 13:06:00,77.1,65.3,30.02,NW,305,5.0,12.0,67,0.00,,SKC,0.06,VWS V14.01,2013-08-04 17:06:00,
2013-08-04 13:12:00,77.4,65.2,30.02,NW,317,3.0,12.0,66,0.00,,SKC,0.06,VWS V14.01,2013-08-04 17:12:00,
2013-08-04 13:17:00,77.3,64.2,30.01,NW,317,3.0,12.0,64,0.00,,SKC,0.06,VWS V14.01,2013-08-04 17:17:00,
2013-08-04 13:22:00,77.4,64.7,30.01,West,269,7.0,12.0,65,0.00,,SKC,0.06,VWS V14.01,2013-08-04 17:22:00,
2013-08-04 13:26:00,77.5,64.8,30.02,NNW,348,2.0,12.0,65,0.00,,SKC,0.06,VWS V14.01,2013-08-04 17:26:00,
2013-08-04 13:30:00,77.5,64.4,30.01,ESE,114,4.0,12.0,64,0.00,,SKC,0.06,VWS V14.01,2013-08-04 17:30:00,
2013-08-04 13:32:00,77.5,64.4,30.01,West,280,2.0,7.0,64,0.00,,SKC,0.06,VWS V14.01,2013-08-04 17:32:00,
2013-08-04 13:37:00,77.0,63.9,30.02,NNE,25,4.0,8.0,64,0.00,,SKC,0.06,VWS V14.01,2013-08-04 17:37:00,
2013-08-04 13:42:00,76.3,64.6,30.02,NNW,338,5.0,9.0,67,0.00,,SKC,0.06,VWS V14.01,2013-08-04 17:42:00,
2013-08-04 13:47:00,76.1,64.4,30.01,NE,44,8.0,9.0,67,0.00,,SKC,0.06,VWS V14.01,2013-08-04 17:47:00,
2013-08-04 13:52:00,76.2,64.4,30.01,NNW,338,2.0,10.0,67,0.00,,SKC,0.06,VWS V14.01,2013-08-04 17:52:00,
2013-08-04 13:57:00,76.4,64.6,30.01,North,4,6.0,11.0,67,0.00,,SKC,0.06,VWS V14.01,2013-08-04 17:57:00,
2013-08-04 14:00:00,76.4,64.6,30.01,North,1,3.0,11.0,67,0.00,,SKC,0.06,VWS V14.01,2013-08-04 18:00:00,
2013-08-04 14:02:00,76.3,64.1,30.01,SW,236,3.0,8.0,66,0.00,,SKC,0.06,VWS V14.01,2013-08-04 18:02:00,
2013-08-04 14:07:00,76.2,64.0,30.01,NNE,16,8.0,11.0,66,0.00,,SKC,0.06,VWS V14.01,2013-08-04 18:07:00,
2013-08-04 14:12:00,76.0,63.8,30.01,NNW,338,4.0,11.0,66,0.00,,SKC,0.06,VWS V14.01,2013-08-04 18:12:00,
2013-08-04 14:17:00,75.9,64.2,30.02,North,8,10.0,11.0,67,0.00,,SKC,0.06,VWS V14.01,2013-08-04 18:17:00,
2013-08-04 14:22:00,76.0,63.8,30.01,WNW,285,2.0,11.0,66,0.00,,SKC,0.06,VWS V14.01,2013-08-04 18:22:00,
2013-08-04 14:27:00,76.0,63.8,30.01,NE,35,4.0,11.0,66,0.00,,SKC,0.06,VWS V14.01,2013-08-04 18:27:00,
2013-08-04 14:30:00,76.0,63.8,30.01,NE,49,4.0,11.0,66,0.00,,SKC,0.06,VWS V14.01,2013-08-04 18:30:00,
2013-08-04 14:32:00,76.0,63.8,30.01,North,5,3.0,6.0,66,0.00,,SKC,0.06,VWS V14.01,2013-08-04 18:32:00,
2013-08-04 14:37:00,75.8,63.2,30.02,NNW,347,9.0,10.0,65,0.00,,SKC,0.06,VWS V14.01,2013-08-04 18:37:00,
2013-08-04 14:42:00,76.0,63.0,30.01,NE,44,6.0,12.0,64,0.00,,SKC,0.06,VWS V14.01,2013-08-04 18:42:00,
2013-08-04 14:47:00,76.4,63.8,30.01,NNW,343,4.0,12.0,65,0.00,,SKC,0.06,VWS V14.01,2013-08-04 18:47:00,
2013-08-04 14:52:00,76.5,63.4,30.01,ENE,62,3.0,12.0,64,0.00,,SKC,0.06,VWS V14.01,2013-08-04 18:52:00,
2013-08-04 14:57:00,76.5,63.9,30.01,SE,136,5.0,12.0,65,0.00,,SKC,0.06,VWS V14.01,2013-08-04 18:57:00,
2013-08-04 15:00:00,76.7,64.1,30.01,West,269,1.0,12.0,65,0.00,,SKC,0.06,VWS V14.01,2013-08-04 19:00:00,
2013-08-04 15:02:00,77.0,65.2,30.01,NE,36,7.0,7.0,67,0.00,,SKC,0.06,VWS V14.01,2013-08-04 19:02:00,
2013-08-04 15:07:00,77.0,63.5,30.01,NNW,347,5.0,13.0,63,0.00,,SKC,0.06,VWS V14.01,2013-08-04 19:07:00,
2013-08-04 15:12:00,77.0,63.5,30.01,North,352,6.0,15.0,63,0.00,,SKC,0.06,VWS V14.01,2013-08-04 19:12:00,
2013-08-04 15:17:00,77.1,64.4,30.01,NNW,340,6.0,15.0,65,0.00,,SKC,0.06,VWS V14.01,2013-08-04 19:17:00,
2013-08-04 15:22:00,77.3,63.7,30.01,North,11,6.0,15.0,63,0.00,,SKC,0.06,VWS V14.01,2013-08-04 19:22:00,
2013-08-04 15:27:00,77.4,63.8,30.01,NNW,338,11.0,15.0,63,0.00,,SKC,0.06,VWS V14.01,2013-08-04 19:27:00,
2013-08-04 15:30:00,77.1,63.1,30.01,NE,39,7.0,15.0,62,0.00,,SKC,0.06,VWS V14.01,2013-08-04 19:30:00,
2013-08-04 15:32:00,77.0,64.3,30.01,NNE,20,4.0,11.0,65,0.00,,SKC,0.06,VWS V14.01,2013-08-04 19:32:00,
2013-08-04 15:37:00,77.1,63.5,30.01,NNE,23,4.0,14.0,63,0.00,,SKC,0.06,VWS V14.01,2013-08-04 19:37:00,
2013-08-04 15:42:00,77.4,64.3,30.01,NE,39,5.0,14.0,64,0.00,,SKC,0.06,VWS V14.01,2013-08-04 19:42:00,
2013-08-04 15:47:00,77.5,63.0,30.01,WNW,298,4.0,14.0,61,0.00,,SKC,0.06,VWS V14.01,2013-08-04 19:47:00,
2013-08-04 15:52:00,77.4,62.9,30.00,NE,36,6.0,14.0,61,0.00,,SKC,0.06,VWS V14.01,2013-08-04 19:52:00,
2013-08-04 15:57:00,77.3,64.2,30.00,North,1,5.0,14.0,64,0.00,,SKC,0.06,VWS V14.01,2013-08-04 19:57:00,
2013-08-04 16:00:00,77.4,63.8,30.00,North,352,1.0,14.0,63,0.00,,SKC,0.06,VWS V14.01,2013-08-04 20:00:00,
2013-08-04 16:02:00,77.5,63.9,30.00,NW,326,4.0,9.0,63,0.00,,SKC,0.06,VWS V14.01,2013-08-04 20:02:00,
2013-08-04 16:07:00,77.8,65.1,30.00,NNE,31,1.0,9.0,65,0.00,,SKC,0.06,VWS V14.01,2013-08-04 20:07:00,
2013-08-04 16:12:00,77.9,64.3,30.00,North,6,8.0,9.0,63,0.00,,SKC,0.06,VWS V14.01,2013-08-04 20:12:00,
2013-08-04 16:17:00,77.7,64.6,30.00,NW,324,4.0,11.0,64,0.00,,SKC,0.06,VWS V14.01,2013-08-04 20:17:00,
2013-08-04 16:21:00,77.2,63.6,30.00,NNW,338,3.0,11.0,63,0.00,,SKC,0.06,VWS V14.01,2013-08-04 20:21:00,
2013-08-04 16:27:00,77.1,64.4,30.00,West,280,1.0,11.0,65,0.00,,SKC,0.06,VWS V14.01,2013-08-04 20:27:00,
2013-08-04 16:30:00,77.2,64.1,30.00,NW,304,3.0,11.0,64,0.00,,SKC,0.06,VWS V14.01,2013-08-04 20:30:00,
2013-08-04 16:32:00,77.2,63.6,30.00,NNE,27,5.0,9.0,63,0.00,,SKC,0.06,VWS V14.01,2013-08-04 20:32:00,
2013-08-04 16:37:00,77.4,64.3,30.00,ENE,68,7.0,9.0,64,0.00,,SKC,0.06,VWS V14.01,2013-08-04 20:37:00,
2013-08-04 16:42:00,77.9,65.2,30.00,NNE,12,9.0,9.0,65,0.00,,SKC,0.06,VWS V14.01,2013-08-04 20:42:00,
2013-08-04 16:47:00,78.2,65.0,30.00,NE,43,5.0,9.0,64,0.00,,SKC,0.06,VWS V14.01,2013-08-04 20:47:00,
2013-08-04 16:52:00,78.0,63.9,30.00,NNE,15,8.0,11.0,62,0.00,,SKC,0.06,VWS V14.01,2013-08-04 20:52:00,
2013-08-04 16:57:00,77.8,62.8,30.00,NNE,20,5.0,12.0,60,0.00,,SKC,0.06,VWS V14.01,2013-08-04 20:57:00,
2013-08-04 17:00:00,77.7,62.7,30.00,NNE,22,9.0,12.0,60,0.00,,SKC,0.06,VWS V14.01,2013-08-04 21:00:00,
2013-08-04 17:02:00,77.5,63.0,30.00,WNW,303,2.0,7.0,61,0.00,,SKC,0.06,VWS V14.01,2013-08-04 21:02:00,
2013-08-04 17:07:00,77.6,63.1,30.00,NNW,342,3.0,11.0,61,0.00,,SKC,0.06,VWS V14.01,2013-08-04 21:07:00,
2013-08-04 17:12:00,77.4,62.4,30.00,NE,53,3.0,11.0,60,0.00,,SKC,0.06,VWS V14.01,2013-08-04 21:12:00,
2013-08-04 17:17:00,77.4,63.4,30.00,NE,41,3.0,11.0,62,0.00,,SKC,0.06,VWS V14.01,2013-08-04 21:17:00,
2013-08-04 17:22:00,77.4,63.8,30.00,NNW,348,2.0,11.0,63,0.00,,SKC,0.06,VWS V14.01,2013-08-04 21:22:00,
2013-08-04 17:27:00,77.5,63.5,29.99,NW,317,3.0,11.0,62,0.00,,SKC,0.06,VWS V14.01,2013-08-04 21:27:00,
2013-08-04 17:30:00,77.6,63.1,30.00,NE,34,4.0,11.0,61,0.00,,SKC,0.06,VWS V14.01,2013-08-04 21:30:00,
2013-08-04 17:32:00,77.6,63.1,30.00,NNE,13,5.0,7.0,61,0.00,,SKC,0.06,VWS V14.01,2013-08-04 21:32:00,
2013-08-04 17:37:00,77.7,62.7,29.99,NNW,340,4.0,8.0,60,0.00,,SKC,0.06,VWS V14.01,2013-08-04 21:37:00,
2013-08-04 17:42:00,77.8,61.9,29.99,North,1,6.0,9.0,58,0.00,,SKC,0.06,VWS V14.01,2013-08-04 21:42:00,
2013-08-04 17:47:00,77.6,62.2,29.99,NNW,327,6.0,11.0,59,0.00,,SKC,0.06,VWS V14.01,2013-08-04 21:47:00,
2013-08-04 17:49:00,77.5,62.5,29.99,NNE,30,5.0,11.0,60,0.00,,SKC,0.06,VWS V14.01,2013-08-04 21:49:00,
2013-08-04 17:54:00,77.4,62.0,29.99,NNE,31,5.0,11.0,59,0.00,,SKC,0.06,VWS V14.01,2013-08-04 21:54:00,
2013-08-04 17:59:00,77.3,62.3,29.99,NE,49,3.0,11.0,60,0.00,,SKC,0.06,VWS V14.01,2013-08-04 21:59:00,
2013-08-04 18:00:00,77.3,62.3,29.99,North,354,3.0,11.0,60,0.00,,SKC,0.06,VWS V14.01,2013-08-04 22:00:00,
2013-08-04 18:04:00,77.1,62.2,30.00,NNE,30,2.0,7.0,60,0.00,,SKC,0.06,VWS V14.01,2013-08-04 22:04:00,
2013-08-04 18:09:00,77.2,63.2,30.00,NW,316,3.0,7.0,62,0.00,,SKC,0.06,VWS V14.01,2013-08-04 22:09:00,
2013-08-04 18:14:00,77.0,62.1,30.00,WNW,300,6.0,8.0,60,0.00,,SKC,0.06,VWS V14.01,2013-08-04 22:14:00,
2013-08-04 18:18:00,77.0,61.6,30.00,NNE,25,4.0,8.0,59,0.00,,SKC,0.06,VWS V14.01,2013-08-04 22:18:00,
2013-08-04 18:23:00,76.7,60.8,30.00,NNE,17,4.0,9.0,58,0.00,,SKC,0.06,VWS V14.01,2013-08-04 22:23:00,
2013-08-04 18:29:00,76.3,60.9,29.99,NNE,15,2.0,9.0,59,0.00,,SKC,0.06,VWS V14.01,2013-08-04 22:29:00,
2013-08-04 18:30:00,76.2,60.4,29.99,NW,316,7.0,9.0,58,0.00,,SKC,0.06,VWS V14.01,2013-08-04 22:30:00,
2013-08-04 18:34:00,76.0,61.1,29.99,NW,313,2.0,9.0,60,0.00,,SKC,0.06,VWS V14.01,2013-08-04 22:34:00,
2013-08-04 18:39:00,75.9,61.0,29.99,NNE,18,1.0,9.0,60,0.00,,SKC,0.06,VWS V14.01,2013-08-04 22:39:00,
2013-08-04 18:44:00,75.9,62.0,29.99,NW,320,3.0,9.0,62,0.00,,SKC,0.06,VWS V14.01,2013-08-04 22:44:00,
2013-08-04 18:49:00,75.8,61.9,29.99,WSW,251,0.0,9.0,62,0.00,,SKC,0.06,VWS V14.01,2013-08-04 22:49:00,
2013-08-04 18:54:00,76.1,62.6,29.99,NW,317,1.0,9.0,63,0.00,,SKC,0.06,VWS V14.01,2013-08-04 22:54:00,
2013-08-04 18:59:00,76.0,62.5,29.99,NNW,341,5.0,9.0,63,0.00,,SKC,0.06,VWS V14.01,2013-08-04 22:59:00,
2013-08-04 19:00:00,75.9,62.0,29.99,NW,322,3.0,9.0,62,0.00,,SKC,0.06,VWS V14.01,2013-08-04 23:00:00,
2013-08-04 19:04:00,75.7,62.2,29.99,NW,319,3.0,6.0,63,0.00,,SKC,0.06,VWS V14.01,2013-08-04 23:04:00,
2013-08-04 19:08:00,75.5,62.5,30.00,WNW,301,2.0,6.0,64,0.00,,SKC,0.06,VWS V14.01,2013-08-04 23:08:00,
2013-08-04 19:14:00,75.1,62.5,30.00,WNW,289,3.0,6.0,65,0.00,,SKC,0.06,VWS V14.01,2013-08-04 23:14:00,
2013-08-04 19:19:00,74.8,62.7,30.00,NW,321,0.0,6.0,66,0.00,,SKC,0.06,VWS V14.01,2013-08-04 23:19:00,
2013-08-04 19:24:00,74.4,62.7,30.00,West,269,0.0,6.0,67,0.00,,SKC,0.06,VWS V14.01,2013-08-04 23:24:00,
2013-08-04 19:29:00,74.0,62.8,30.00,NW,319,2.0,6.0,68,0.00,,SKC,0.06,VWS V14.01,2013-08-04 23:29:00,
2013-08-04 19:30:00,74.0,63.2,30.00,NW,316,1.0,6.0,69,0.00,,SKC,0.06,VWS V14.01,2013-08-04 23:30:00,
2013-08-04 19:33:00,73.7,62.9,30.00,North,354,0.0,2.0,69,0.00,,SKC,0.06,VWS V14.01,2013-08-04 23:33:00,
2013-08-04 19:39:00,73.3,62.9,30.01,NNW,338,1.0,3.0,70,0.00,,SKC,0.06,VWS V14.01,2013-08-04 23:39:00,
2013-08-04 19:44:00,73.1,63.2,30.01,NNW,332,1.0,3.0,71,0.00,,SKC,0.06,VWS V14.01,2013-08-04 23:44:00,
2013-08-04 19:49:00,72.8,63.3,30.01,NNW,334,0.0,3.0,72,0.00,,SKC,0.06,VWS V14.01,2013-08-04 23:49:00,
2013-08-04 19:54:00,72.5,63.0,30.01,NNW,347,2.0,4.0,72,0.00,,SKC,0.06,VWS V14.01,2013-08-04 23:54:00,
2013-08-04 19:59:00,72.2,63.1,30.01,North,6,0.0,4.0,73,0.00,,SKC,0.06,VWS V14.01,2013-08-04 23:59:00,
2013-08-04 20:00:00,72.2,63.5,30.01,North,6,0.0,4.0,74,0.00,,SKC,0.06,VWS V14.01,2013-08-05 00:00:00,
2013-08-04 20:03:00,71.9,63.2,30.01,North,6,0.0,1.0,74,0.00,,SKC,0.06,VWS V14.01,2013-08-05 00:03:00,
2013-08-04 20:08:00,71.6,63.3,30.01,North,6,0.0,1.0,75,0.00,,SKC,0.06,VWS V14.01,2013-08-05 00:08:00,
2013-08-04 20:13:00,71.3,63.3,30.01,North,6,0.0,1.0,76,0.00,,SKC,0.06,VWS V14.01,2013-08-05 00:13:00,
2013-08-04 20:18:00,70.9,63.3,30.01,North,6,0.0,1.0,77,0.00,,SKC,0.06,VWS V14.01,2013-08-05 00:18:00,
2013-08-04 20:23:00,70.5,63.3,30.01,North,6,0.0,1.0,78,0.00,,SKC,0.06,VWS V14.01,2013-08-05 00:23:00,
2013-08-04 20:28:00,70.1,63.7,30.01,North,6,1.0,1.0,80,0.00,,SKC,0.06,VWS V14.01,2013-08-05 00:28:00,
2013-08-04 20:30:00,69.9,63.5,30.01,North,6,0.0,1.0,80,0.00,,SKC,0.06,VWS V14.01,2013-08-05 00:30:00,
2013-08-04 20:33:00,69.7,63.6,30.01,North,6,0.0,0.0,81,0.00,,SKC,0.06,VWS V14.01,2013-08-05 00:33:00,
2013-08-04 20:38:00,69.3,63.6,30.01,North,6,0.0,1.0,82,0.00,,SKC,0.06,VWS V14.01,2013-08-05 00:38:00,
2013-08-04 20:43:00,68.9,63.5,30.01,North,6,0.0,1.0,83,0.00,,SKC,0.06,VWS V14.01,2013-08-05 00:43:00,
2013-08-04 20:48:00,68.6,63.2,30.02,North,6,0.0,1.0,83,0.00,,SKC,0.06,VWS V14.01,2013-08-05 00:48:00,
2013-08-04 20:53:00,68.3,63.3,30.02,North,6,0.0,1.0,84,0.00,,SKC,0.06,VWS V14.01,2013-08-05 00:53:00,
2013-08-04 20:58:00,67.9,63.2,30.02,North,8,0.0,1.0,85,0.00,,SKC,0.06,VWS V14.01,2013-08-05 00:58:00,
2013-08-04 21:00:00,67.8,62.8,30.02,North,8,0.0,1.0,84,0.00,,SKC,0.06,VWS V14.01,2013-08-05 01:00:00,
2013-08-04 21:03:00,67.5,63.2,30.02,North,6,0.0,0.0,86,0.00,,SKC,0.06,VWS V14.01,2013-08-05 01:03:00,
2013-08-04 21:08:00,67.2,63.2,30.02,North,6,0.0,0.0,87,0.00,,SKC,0.06,VWS V14.01,2013-08-05 01:08:00,
2013-08-04 21:13:00,66.8,62.8,30.02,North,6,0.0,0.0,87,0.00,,SKC,0.06,VWS V14.01,2013-08-05 01:13:00,
2013-08-04 21:18:00,66.5,62.8,30.02,North,6,0.0,0.0,88,0.00,,SKC,0.06,VWS V14.01,2013-08-05 01:18:00,
2013-08-04 21:23:00,66.2,62.9,30.02,North,6,0.0,0.0,89,0.00,,SKC,0.06,VWS V14.01,2013-08-05 01:23:00,
2013-08-04 21:28:00,65.9,62.9,30.02,North,8,0.0,0.0,90,0.00,,SKC,0.06,VWS V14.01,2013-08-05 01:28:00,
2013-08-04 21:30:00,65.8,62.8,30.02,North,6,0.0,0.0,90,0.00,,SKC,0.06,VWS V14.01,2013-08-05 01:30:00,
2013-08-04 21:33:00,65.7,62.7,30.03,North,8,0.0,0.0,90,0.00,,SKC,0.06,VWS V14.01,2013-08-05 01:33:00,
2013-08-04 21:38:00,65.4,62.7,30.03,North,6,0.0,0.0,91,0.00,,SKC,0.06,VWS V14.01,2013-08-05 01:38:00,
2013-08-04 21:43:00,65.2,62.5,30.04,North,8,0.0,0.0,91,0.00,,SKC,0.06,VWS V14.01,2013-08-05 01:43:00,
2013-08-04 21:48:00,65.0,62.3,30.04,North,6,0.0,0.0,91,0.00,,SKC,0.06,VWS V14.01,2013-08-05 01:48:00,
2013-08-04 21:53:00,64.9,62.2,30.04,North,6,0.0,0.0,91,0.00,,SKC,0.06,VWS V14.01,2013-08-05 01:53:00,
2013-08-04 21:58:00,64.9,62.5,30.04,North,6,0.0,0.0,92,0.00,,SKC,0.06,VWS V14.01,2013-08-05 01:58:00,
2013-08-04 22:00:00,64.9,62.5,30.04,North,8,0.0,0.0,92,0.00,,SKC,0.06,VWS V14.01,2013-08-05 02:00:00,
2013-08-04 22:03:00,64.9,62.5,30.05,North,6,0.0,0.0,92,0.00,,SKC,0.06,VWS V14.01,2013-08-05 02:03:00,
2013-08-04 22:08:00,64.9,62.2,30.05,North,8,0.0,0.0,91,0.00,,SKC,0.06,VWS V14.01,2013-08-05 02:08:00,
2013-08-04 22:13:00,64.8,62.4,30.05,North,6,0.0,0.0,92,0.00,,SKC,0.06,VWS V14.01,2013-08-05 02:13:00,
2013-08-04 22:18:00,64.7,62.0,30.05,North,8,0.0,1.0,91,0.00,,SKC,0.06,VWS V14.01,2013-08-05 02:18:00,
2013-08-04 22:23:00,64.6,62.2,30.05,North,6,0.0,1.0,92,0.00,,SKC,0.06,VWS V14.01,2013-08-05 02:23:00,
2013-08-04 22:28:00,64.4,62.0,30.06,North,6,0.0,1.0,92,0.00,,SKC,0.06,VWS V14.01,2013-08-05 02:28:00,
2013-08-04 22:30:00,64.4,62.3,30.06,North,6,0.0,1.0,93,0.00,,SKC,0.06,VWS V14.01,2013-08-05 02:30:00,
2013-08-04 22:33:00,64.3,62.2,30.06,North,8,0.0,0.0,93,0.00,,SKC,0.06,VWS V14.01,2013-08-05 02:33:00,
2013-08-04 22:38:00,64.2,62.1,30.06,North,8,0.0,0.0,93,0.00,,SKC,0.06,VWS V14.01,2013-08-05 02:38:00,
2013-08-04 22:43:00,64.1,62.3,30.06,North,8,0.0,0.0,94,0.00,,SKC,0.06,VWS V14.01,2013-08-05 02:43:00,
2013-08-04 22:48:00,63.9,62.1,30.05,North,8,0.0,0.0,94,0.00,,SKC,0.06,VWS V14.01,2013-08-05 02:48:00,
2013-08-04 22:53:00,63.7,62.0,30.05,North,6,0.0,0.0,94,0.00,,SKC,0.06,VWS V14.01,2013-08-05 02:53:00,
2013-08-04 22:58:00,63.6,62.2,30.06,North,6,0.0,0.0,95,0.00,,SKC,0.06,VWS V14.01,2013-08-05 02:58:00,
2013-08-04 23:00:00,63.5,62.0,30.06,North,8,0.0,0.0,95,0.00,,SKC,0.06,VWS V14.01,2013-08-05 03:00:00,
2013-08-04 23:03:00,63.4,62.0,30.05,North,8,0.0,0.0,95,0.00,,SKC,0.06,VWS V14.01,2013-08-05 03:03:00,
2013-08-04 23:08:00,63.4,62.0,30.06,North,8,0.0,0.0,95,0.00,,SKC,0.06,VWS V14.01,2013-08-05 03:08:00,
2013-08-04 23:13:00,63.3,61.8,30.05,North,6,0.0,0.0,95,0.00,,SKC,0.06,VWS V14.01,2013-08-05 03:13:00,
2013-08-04 23:18:00,63.2,61.8,30.06,North,6,0.0,0.0,95,0.00,,SKC,0.06,VWS V14.01,2013-08-05 03:18:00,
2013-08-04 23:23:00,63.2,62.0,30.06,North,6,0.0,1.0,96,0.00,,SKC,0.06,VWS V14.01,2013-08-05 03:23:00,
2013-08-04 23:28:00,63.1,61.9,30.05,North,6,0.0,1.0,96,0.00,,SKC,0.06,VWS V14.01,2013-08-05 03:28:00,
2013-08-04 23:30:00,63.1,61.9,30.05,North,6,1.0,1.0,96,0.00,,SKC,0.06,VWS V14.01,2013-08-05 03:30:00,
2013-08-04 23:33:00,63.1,61.9,30.05,North,8,0.0,1.0,96,0.00,,SKC,0.06,VWS V14.01,2013-08-05 03:33:00,
2013-08-04 23:38:00,63.0,61.8,30.05,North,8,0.0,1.0,96,0.00,,SKC,0.06,VWS V14.01,2013-08-05 03:38:00,
2013-08-04 23:43:00,62.8,61.7,30.05,North,6,0.0,1.0,96,0.00,,SKC,0.06,VWS V14.01,2013-08-05 03:43:00,
2013-08-04 23:48:00,62.7,61.5,30.05,North,6,0.0,1.0,96,0.00,,SKC,0.06,VWS V14.01,2013-08-05 03:48:00,
2013-08-04 23:53:00,62.6,61.5,30.05,North,8,0.0,2.0,96,0.00,,SKC,0.06,VWS V14.01,2013-08-05 03:53:00,
2013-08-04 23:58:00,62.6,61.5,30.05,North,6,0.0,2.0,96,0.00,,SKC,0.06,VWS V14.01,2013-08-05 03:58:00,